createdAt,value
2018-01-23T00:00:03.946Z,-74
2018-01-23T00:01:02.098Z,-74
2018-01-23T00:02:02.424Z,-75
2018-01-23T00:03:03.579Z,-74
2018-01-23T00:04:02.474Z,-74
2018-01-23T00:05:02.559Z,-74
2018-01-23T00:06:02.295Z,-74
2018-01-23T00:07:02.556Z,-74
2018-01-23T00:08:02.594Z,-74
2018-01-23T00:09:02.765Z,-76
2018-01-23T00:10:01.820Z,-76
2018-01-23T00:11:01.658Z,-76
2018-01-23T00:12:02.162Z,-76
2018-01-23T00:13:02.508Z,-76
2018-01-23T00:14:03.891Z,-76
2018-01-23T00:15:03.748Z,-76
2018-01-23T00:16:03.800Z,-75
2018-01-23T00:17:02.631Z,-76
2018-01-23T00:18:04.186Z,-76
2018-01-23T00:19:03.045Z,-74
2018-01-23T00:20:03.226Z,-74
2018-01-23T00:21:03.060Z,-74
2018-01-23T00:22:01.793Z,-74
2018-01-23T00:23:02.490Z,-75
2018-01-23T00:24:03.498Z,-74
2018-01-23T00:25:01.624Z,-76
2018-01-23T00:26:01.818Z,-75
2018-01-23T00:27:02.317Z,-75
2018-01-23T00:28:02.054Z,-76
2018-01-23T00:29:02.394Z,-76
2018-01-23T00:30:02.836Z,-75
2018-01-23T00:31:02.420Z,-75
2018-01-23T00:32:02.670Z,-76
2018-01-23T00:33:02.982Z,-76
2018-01-23T00:34:02.546Z,-75
2018-01-23T00:35:04.471Z,-75
2018-01-23T00:36:02.289Z,-75
2018-01-23T00:37:04.555Z,-76
2018-01-23T00:38:02.140Z,-76
2018-01-23T00:39:02.366Z,-75
2018-01-23T00:40:02.213Z,-74
2018-01-23T00:41:02.368Z,-74
2018-01-23T00:42:03.224Z,-74
2018-01-23T00:43:02.217Z,-74
2018-01-23T00:44:01.870Z,-74
2018-01-23T00:45:01.917Z,-75
2018-01-23T00:46:01.765Z,-75
2018-01-23T00:47:02.632Z,-75
2018-01-23T00:48:03.296Z,-74
2018-01-23T00:49:03.503Z,-73
2018-01-23T00:50:02.924Z,-74
2018-01-23T00:51:02.552Z,-74
2018-01-23T00:52:01.982Z,-75
2018-01-23T00:53:03.047Z,-75
2018-01-23T00:54:01.930Z,-75
2018-01-23T00:55:02.072Z,-76
2018-01-23T00:56:04.308Z,-76
2018-01-23T00:57:02.932Z,-76
2018-01-23T00:58:03.532Z,-76
2018-01-23T00:59:02.078Z,-76
2018-01-23T01:00:02.333Z,-76
2018-01-23T01:01:03.726Z,-75
2018-01-23T01:02:02.515Z,-76
2018-01-23T01:03:02.592Z,-76
2018-01-23T01:04:02.220Z,-76
2018-01-23T01:05:02.132Z,-76
2018-01-23T01:06:02.405Z,-76
2018-01-23T01:07:02.656Z,-75
2018-01-23T01:08:02.970Z,-74
2018-01-23T01:09:02.974Z,-74
2018-01-23T01:10:02.805Z,-74
2018-01-23T01:11:02.210Z,-75
2018-01-23T01:12:03.980Z,-74
2018-01-23T01:13:02.676Z,-75
2018-01-23T01:14:02.456Z,-75
2018-01-23T01:15:02.993Z,-74
2018-01-23T01:16:03.345Z,-75
2018-01-23T01:17:02.073Z,-74
2018-01-23T01:18:02.428Z,-74
2018-01-23T01:19:03.496Z,-74
2018-01-23T01:20:02.419Z,-74
2018-01-23T01:21:01.862Z,-75
2018-01-23T01:22:02.416Z,-74
2018-01-23T01:23:02.202Z,-74
2018-01-23T01:24:02.568Z,-74
2018-01-23T01:25:02.729Z,-74
2018-01-23T01:26:02.652Z,-76
2018-01-23T01:27:02.629Z,-74
2018-01-23T01:28:03.376Z,-74
2018-01-23T01:29:02.943Z,-74
2018-01-23T01:30:04.266Z,-74
2018-01-23T01:31:03.602Z,-76
2018-01-23T01:32:04.117Z,-75
2018-01-23T01:33:03.547Z,-76
2018-01-23T01:34:04.160Z,-76
2018-01-23T01:35:02.195Z,-76
2018-01-23T01:36:02.765Z,-76
2018-01-23T01:37:02.727Z,-74
2018-01-23T01:38:02.193Z,-74
2018-01-23T01:39:02.609Z,-74
2018-01-23T01:40:02.172Z,-74
2018-01-23T01:41:03.247Z,-76
2018-01-23T01:42:04.187Z,-76
2018-01-23T01:43:02.136Z,-75
2018-01-23T01:44:02.706Z,-76
2018-01-23T01:45:02.347Z,-76
2018-01-23T01:46:04.754Z,-74
2018-01-23T01:47:02.705Z,-74
2018-01-23T01:48:02.920Z,-73
2018-01-23T01:49:02.321Z,-75
2018-01-23T01:50:06.101Z,-76
2018-01-23T01:51:01.934Z,-76
2018-01-23T01:52:03.936Z,-76
2018-01-23T01:53:01.928Z,-76
2018-01-23T01:54:02.208Z,-73
2018-01-23T01:55:02.949Z,-73
2018-01-23T01:56:02.005Z,-73
2018-01-23T01:57:03.207Z,-73
2018-01-23T01:58:02.102Z,-76
2018-01-23T01:59:03.210Z,-75
2018-01-23T02:00:03.086Z,-76
2018-01-23T02:01:04.729Z,-76
2018-01-23T02:02:02.839Z,-75
2018-01-23T02:03:03.615Z,-76
2018-01-23T02:04:02.526Z,-76
2018-01-23T02:05:02.352Z,-75
2018-01-23T02:06:02.072Z,-74
2018-01-23T02:07:03.407Z,-74
2018-01-23T02:08:02.559Z,-74
2018-01-23T02:09:03.856Z,-75
2018-01-23T02:10:02.263Z,-76
2018-01-23T02:11:03.404Z,-75
2018-01-23T02:12:04.050Z,-76
2018-01-23T02:13:02.110Z,-76
2018-01-23T02:14:01.799Z,-74
2018-01-23T02:15:02.081Z,-74
2018-01-23T02:16:04.221Z,-74
2018-01-23T02:17:02.179Z,-74
2018-01-23T02:18:03.146Z,-74
2018-01-23T02:19:05.225Z,-75
2018-01-23T02:20:02.163Z,-75
2018-01-23T02:21:02.205Z,-75
2018-01-23T02:22:01.769Z,-74
2018-01-23T02:23:02.862Z,-74
2018-01-23T02:24:01.687Z,-74
2018-01-23T02:25:03.216Z,-74
2018-01-23T02:26:02.792Z,-74
2018-01-23T02:27:03.451Z,-74
2018-01-23T02:28:05.577Z,-74
2018-01-23T02:29:02.023Z,-74
2018-01-23T02:30:01.969Z,-74
2018-01-23T02:31:02.442Z,-75
2018-01-23T02:32:02.225Z,-76
2018-01-23T02:33:01.686Z,-75
2018-01-23T02:34:02.542Z,-76
2018-01-23T02:35:02.065Z,-76
2018-01-23T02:36:02.203Z,-76
2018-01-23T02:37:02.751Z,-74
2018-01-23T02:38:03.622Z,-76
2018-01-23T02:39:03.690Z,-76
2018-01-23T02:40:03.587Z,-75
2018-01-23T02:41:02.369Z,-75
2018-01-23T02:42:02.350Z,-76
2018-01-23T02:43:05.796Z,-74
2018-01-23T02:44:02.940Z,-75
2018-01-23T02:45:02.845Z,-76
2018-01-23T02:46:02.957Z,-76
2018-01-23T02:47:02.050Z,-76
2018-01-23T02:48:04.560Z,-77
2018-01-23T02:49:03.205Z,-77
2018-01-23T02:50:02.569Z,-77
2018-01-23T02:51:02.151Z,-77
2018-01-23T02:52:04.232Z,-76
2018-01-23T02:53:04.434Z,-76
2018-01-23T02:54:02.028Z,-76
2018-01-23T02:55:02.789Z,-76
2018-01-23T02:56:03.345Z,-75
2018-01-23T02:57:02.111Z,-75
2018-01-23T02:58:02.836Z,-75
2018-01-23T02:59:03.314Z,-76
2018-01-23T03:00:04.635Z,-75
2018-01-23T03:01:03.301Z,-77
2018-01-23T03:02:02.135Z,-76
2018-01-23T03:03:02.091Z,-76
2018-01-23T03:04:04.109Z,-73
2018-01-23T03:05:02.165Z,-74
2018-01-23T03:06:02.150Z,-74
2018-01-23T03:07:01.954Z,-75
2018-01-23T03:08:02.144Z,-74
2018-01-23T03:09:02.196Z,-75
2018-01-23T03:10:03.852Z,-76
2018-01-23T03:11:02.029Z,-76
2018-01-23T03:12:02.654Z,-76
2018-01-23T03:13:08.324Z,-74
2018-01-23T03:14:03.458Z,-73
2018-01-23T03:15:04.257Z,-74
2018-01-23T03:16:04.088Z,-74
2018-01-23T03:17:03.373Z,-74
2018-01-23T03:18:03.143Z,-73
2018-01-23T03:19:02.907Z,-73
2018-01-23T03:20:02.254Z,-74
2018-01-23T03:21:02.010Z,-74
2018-01-23T03:22:04.046Z,-74
2018-01-23T03:23:04.333Z,-76
2018-01-23T03:24:02.194Z,-76
2018-01-23T03:25:02.271Z,-76
2018-01-23T03:26:02.478Z,-75
2018-01-23T03:27:02.069Z,-76
2018-01-23T03:28:03.422Z,-75
2018-01-23T03:29:02.081Z,-75
2018-01-23T03:30:02.607Z,-75
2018-01-23T03:31:02.338Z,-75
2018-01-23T03:32:03.551Z,-76
2018-01-23T03:33:04.261Z,-75
2018-01-23T03:34:03.344Z,-74
2018-01-23T03:35:04.450Z,-74
2018-01-23T03:36:02.105Z,-74
2018-01-23T03:37:04.126Z,-75
2018-01-23T03:38:02.938Z,-74
2018-01-23T03:39:04.433Z,-73
2018-01-23T03:40:04.168Z,-74
2018-01-23T03:41:03.169Z,-74
2018-01-23T03:42:05.373Z,-74
2018-01-23T03:43:05.760Z,-74
2018-01-23T03:44:06.312Z,-74
2018-01-23T03:45:02.590Z,-76
2018-01-23T03:46:03.017Z,-75
2018-01-23T03:47:02.565Z,-76
2018-01-23T03:48:02.725Z,-76
2018-01-23T03:49:02.254Z,-76
2018-01-23T03:50:04.109Z,-75
2018-01-23T03:51:02.165Z,-76
2018-01-23T03:52:02.217Z,-74
2018-01-23T03:53:02.673Z,-75
2018-01-23T03:54:03.710Z,-76
2018-01-23T03:55:02.553Z,-76
2018-01-23T03:56:02.017Z,-76
2018-01-23T03:57:02.114Z,-76
2018-01-23T03:58:03.278Z,-76
2018-01-23T03:59:03.006Z,-77
2018-01-23T04:00:02.924Z,-77
2018-01-23T04:01:02.662Z,-77
2018-01-23T04:02:03.013Z,-77
2018-01-23T04:03:01.703Z,-77
2018-01-23T04:04:02.447Z,-77
2018-01-23T04:05:04.047Z,-77
2018-01-23T04:06:04.024Z,-77
2018-01-23T04:07:03.572Z,-77
2018-01-23T04:08:02.208Z,-77
2018-01-23T04:09:04.893Z,-77
2018-01-23T04:10:03.549Z,-77
2018-01-23T04:11:02.445Z,-77
2018-01-23T04:12:03.210Z,-73
2018-01-23T04:13:02.230Z,-73
2018-01-23T04:14:02.127Z,-74
2018-01-23T04:15:04.639Z,-76
2018-01-23T04:16:04.237Z,-75
2018-01-23T04:17:02.528Z,-75
2018-01-23T04:18:03.189Z,-75
2018-01-23T04:19:04.322Z,-76
2018-01-23T04:20:02.450Z,-75
2018-01-23T04:21:02.851Z,-75
2018-01-23T04:22:04.241Z,-74
2018-01-23T04:23:04.394Z,-74
2018-01-23T04:24:03.781Z,-74
2018-01-23T04:25:02.790Z,-75
2018-01-23T04:26:03.770Z,-75
2018-01-23T04:27:02.244Z,-74
2018-01-23T04:28:03.503Z,-76
2018-01-23T04:29:03.676Z,-76
2018-01-23T04:30:04.181Z,-75
2018-01-23T04:31:03.825Z,-76
2018-01-23T04:32:02.872Z,-75
2018-01-23T04:33:02.559Z,-76
2018-01-23T04:34:02.551Z,-75
2018-01-23T04:35:03.256Z,-76
2018-01-23T04:36:03.696Z,-77
2018-01-23T04:37:02.884Z,-77
2018-01-23T04:38:04.239Z,-77
2018-01-23T04:39:04.081Z,-77
2018-01-23T04:40:04.197Z,-77
2018-01-23T04:41:02.643Z,-77
2018-01-23T04:42:02.317Z,-77
2018-01-23T04:43:03.450Z,-77
2018-01-23T04:44:03.674Z,-77
2018-01-23T04:45:02.760Z,-77
2018-01-23T04:46:02.959Z,-77
2018-01-23T04:47:03.178Z,-75
2018-01-23T04:48:03.131Z,-76
2018-01-23T04:49:02.260Z,-75
2018-01-23T04:50:02.405Z,-77
2018-01-23T04:51:02.874Z,-78
2018-01-23T04:52:02.822Z,-75
2018-01-23T04:53:03.380Z,-75
2018-01-23T04:54:03.151Z,-75
2018-01-23T04:55:02.449Z,-76
2018-01-23T04:56:03.708Z,-77
2018-01-23T04:57:03.100Z,-76
2018-01-23T04:58:02.339Z,-77
2018-01-23T04:59:03.276Z,-77
2018-01-23T05:00:04.332Z,-77
2018-01-23T05:01:02.432Z,-74
2018-01-23T05:02:03.304Z,-74
2018-01-23T05:03:02.472Z,-76
2018-01-23T05:04:03.351Z,-76
2018-01-23T05:05:04.484Z,-76
2018-01-23T05:06:03.087Z,-76
2018-01-23T05:07:02.845Z,-77
2018-01-23T05:08:02.338Z,-77
2018-01-23T05:09:04.413Z,-76
2018-01-23T05:10:03.225Z,-77
2018-01-23T05:11:02.875Z,-76
2018-01-23T05:12:04.031Z,-75
2018-01-23T05:13:03.572Z,-75
2018-01-23T05:14:04.908Z,-76
2018-01-23T05:15:03.270Z,-75
2018-01-23T05:16:02.555Z,-77
2018-01-23T05:17:04.069Z,-75
2018-01-23T05:18:03.896Z,-77
2018-01-23T05:19:04.416Z,-77
2018-01-23T05:20:06.040Z,-77
2018-01-23T05:21:02.571Z,-75
2018-01-23T05:22:03.814Z,-75
2018-01-23T05:23:05.024Z,-76
2018-01-23T05:24:02.174Z,-77
2018-01-23T05:25:02.460Z,-76
2018-01-23T05:26:02.863Z,-76
2018-01-23T05:27:06.129Z,-77
2018-01-23T05:28:03.029Z,-77
2018-01-23T05:29:02.724Z,-77
2018-01-23T05:30:04.579Z,-77
2018-01-23T05:31:05.100Z,-75
2018-01-23T05:32:02.254Z,-75
2018-01-23T05:33:03.997Z,-75
2018-01-23T05:34:03.313Z,-74
2018-01-23T05:35:02.366Z,-75
2018-01-23T05:36:04.213Z,-75
2018-01-23T05:37:02.440Z,-75
2018-01-23T05:38:02.532Z,-76
2018-01-23T05:39:02.286Z,-76
2018-01-23T05:40:03.221Z,-76
2018-01-23T05:41:04.032Z,-76
2018-01-23T05:42:03.228Z,-76
2018-01-23T05:43:02.554Z,-77
2018-01-23T05:44:02.392Z,-76
2018-01-23T05:45:02.613Z,-76
2018-01-23T05:46:03.970Z,-76
2018-01-23T05:47:03.034Z,-77
2018-01-23T05:48:02.168Z,-77
2018-01-23T05:49:03.036Z,-77
2018-01-23T05:50:03.355Z,-76
2018-01-23T05:51:02.970Z,-76
2018-01-23T05:52:02.134Z,-77
2018-01-23T05:53:03.374Z,-77
2018-01-23T05:54:02.737Z,-77
2018-01-23T05:55:02.481Z,-77
2018-01-23T05:56:02.964Z,-77
2018-01-23T05:57:02.680Z,-77
2018-01-23T05:58:02.793Z,-77
2018-01-23T05:59:03.165Z,-77
2018-01-23T06:00:03.883Z,-76
2018-01-23T06:01:02.721Z,-78
2018-01-23T06:02:02.380Z,-78
2018-01-23T06:03:03.665Z,-78
2018-01-23T06:04:03.855Z,-78
2018-01-23T06:05:03.248Z,-78
2018-01-23T06:06:02.185Z,-78
2018-01-23T06:07:03.481Z,-78
2018-01-23T06:08:02.761Z,-78
2018-01-23T06:09:02.176Z,-76
2018-01-23T06:10:03.238Z,-77
2018-01-23T06:11:03.129Z,-78
2018-01-23T06:12:02.600Z,-76
2018-01-23T06:13:03.366Z,-77
2018-01-23T06:14:02.452Z,-76
2018-01-23T06:15:02.394Z,-78
2018-01-23T06:16:04.599Z,-78
2018-01-23T06:17:03.431Z,-78
2018-01-23T06:18:02.564Z,-77
2018-01-23T06:19:03.576Z,-77
2018-01-23T06:20:04.373Z,-78
2018-01-23T06:21:07.707Z,-78
2018-01-23T06:22:03.959Z,-78
2018-01-23T06:23:03.802Z,-78
2018-01-23T06:24:02.727Z,-79
2018-01-23T06:25:04.540Z,-78
2018-01-23T06:26:05.001Z,-78
2018-01-23T06:27:04.698Z,-78
2018-01-23T06:28:04.446Z,-78
2018-01-23T06:29:02.959Z,-78
2018-01-23T06:30:03.507Z,-78
2018-01-23T06:31:02.456Z,-78
2018-01-23T06:32:02.711Z,-77
2018-01-23T06:33:03.991Z,-78
2018-01-23T06:34:02.542Z,-78
2018-01-23T06:35:03.976Z,-78
2018-01-23T06:36:03.599Z,-78
2018-01-23T06:37:03.000Z,-79
2018-01-23T06:38:04.684Z,-79
2018-01-23T06:39:02.590Z,-78
2018-01-23T06:40:03.765Z,-79
2018-01-23T06:41:03.631Z,-78
2018-01-23T06:42:03.817Z,-78
2018-01-23T06:43:02.452Z,-78
2018-01-23T06:44:03.624Z,-77
2018-01-23T06:45:03.166Z,-78
2018-01-23T06:46:03.413Z,-76
2018-01-23T06:47:03.268Z,-77
2018-01-23T06:48:04.115Z,-76
2018-01-23T06:49:03.753Z,-77
2018-01-23T06:50:03.587Z,-77
2018-01-23T06:51:03.356Z,-77
2018-01-23T06:52:02.578Z,-78
2018-01-23T06:53:04.498Z,-77
2018-01-23T06:54:05.252Z,-78
2018-01-23T06:55:03.159Z,-78
2018-01-23T06:56:03.296Z,-76
2018-01-23T06:57:03.773Z,-76
2018-01-23T06:58:02.427Z,-76
2018-01-23T06:59:03.794Z,-76
2018-01-23T07:00:03.071Z,-79
2018-01-23T07:01:02.434Z,-78
2018-01-23T07:02:04.128Z,-77
2018-01-23T07:03:02.288Z,-78
2018-01-23T07:04:03.500Z,-78
2018-01-23T07:05:03.300Z,-77
2018-01-23T07:06:02.352Z,-77
2018-01-23T07:07:02.461Z,-77
2018-01-23T07:08:03.092Z,-77
2018-01-23T07:09:05.013Z,-76
2018-01-23T07:10:05.186Z,-76
2018-01-23T07:11:03.595Z,-77
2018-01-23T07:12:03.350Z,-76
2018-01-23T07:13:03.322Z,-77
2018-01-23T07:14:02.800Z,-77
2018-01-23T07:15:02.404Z,-78
2018-01-23T07:16:04.280Z,-78
2018-01-23T07:17:02.851Z,-77
2018-01-23T07:18:03.822Z,-77
2018-01-23T07:19:04.454Z,-77
2018-01-23T07:20:02.977Z,-78
2018-01-23T07:21:02.344Z,-78
2018-01-23T07:22:02.345Z,-78
2018-01-23T07:23:07.038Z,-77
2018-01-23T07:24:03.788Z,-77
2018-01-23T07:25:04.871Z,-76
2018-01-23T07:26:05.400Z,-76
2018-01-23T07:27:02.353Z,-76
2018-01-23T07:28:03.278Z,-75
2018-01-23T07:29:03.033Z,-76
2018-01-23T07:30:05.564Z,-76
2018-01-23T07:31:04.077Z,-76
2018-01-23T07:32:08.073Z,-76
2018-01-23T07:33:02.245Z,-75
2018-01-23T07:34:02.322Z,-77
2018-01-23T07:35:02.505Z,-77
2018-01-23T07:36:02.442Z,-77
2018-01-23T07:37:02.837Z,-77
2018-01-23T07:38:01.729Z,-77
2018-01-23T07:39:01.738Z,-77
2018-01-23T07:40:01.935Z,-77
2018-01-23T07:41:01.723Z,-77
2018-01-23T07:42:01.990Z,-77
2018-01-23T07:43:01.726Z,-78
2018-01-23T07:44:01.840Z,-76
2018-01-23T07:45:01.644Z,-76
2018-01-23T07:46:02.246Z,-77
2018-01-23T07:47:01.970Z,-77
2018-01-23T07:48:01.787Z,-77
2018-01-23T07:49:01.729Z,-78
2018-01-23T07:50:01.838Z,-77
2018-01-23T07:51:01.885Z,-77
2018-01-23T07:52:01.684Z,-77
2018-01-23T07:53:02.000Z,-77
2018-01-23T07:54:01.709Z,-78
2018-01-23T07:55:01.826Z,-78
2018-01-23T07:56:01.830Z,-77
2018-01-23T07:57:01.813Z,-77
2018-01-23T07:58:01.856Z,-78
2018-01-23T07:59:01.749Z,-78
2018-01-23T08:00:01.739Z,-77
2018-01-23T08:01:01.956Z,-76
2018-01-23T08:02:01.869Z,-77
2018-01-23T08:03:03.262Z,-76
2018-01-23T08:04:01.755Z,-77
2018-01-23T08:05:01.752Z,-77
2018-01-23T08:06:01.985Z,-77
2018-01-23T08:07:01.982Z,-78
2018-01-23T08:08:02.038Z,-77
2018-01-23T08:09:01.917Z,-77
2018-01-23T08:10:01.886Z,-78
2018-01-23T08:11:02.376Z,-77
2018-01-23T08:12:01.944Z,-77
2018-01-23T08:13:02.150Z,-77
2018-01-23T08:14:01.885Z,-77
2018-01-23T08:15:01.888Z,-77
2018-01-23T08:16:01.736Z,-78
2018-01-23T08:17:01.960Z,-78
2018-01-23T08:18:02.097Z,-77
2018-01-23T08:19:01.756Z,-77
2018-01-23T08:20:01.930Z,-76
2018-01-23T08:21:01.896Z,-77
2018-01-23T08:22:01.857Z,-76
2018-01-23T08:23:01.924Z,-76
2018-01-23T08:24:01.842Z,-76
2018-01-23T08:25:02.167Z,-77
2018-01-23T08:26:02.011Z,-76
2018-01-23T08:27:01.902Z,-77
2018-01-23T08:28:02.003Z,-77
2018-01-23T08:29:02.732Z,-77
2018-01-23T08:30:07.818Z,-77
2018-01-23T08:31:04.634Z,-77
2018-01-23T08:32:04.778Z,-77
2018-01-23T08:33:02.774Z,-77
2018-01-23T08:34:03.212Z,-77
2018-01-23T08:35:04.185Z,-77
2018-01-23T08:36:01.785Z,-77
2018-01-23T08:37:02.518Z,-77
2018-01-23T08:38:05.107Z,-77
2018-01-23T08:39:03.596Z,-78
2018-01-23T08:40:03.676Z,-77
2018-01-23T08:41:02.073Z,-77
2018-01-23T08:42:02.053Z,-78
2018-01-23T08:43:01.753Z,-78
2018-01-23T08:44:02.254Z,-78
2018-01-23T08:45:02.021Z,-78
2018-01-23T08:46:01.938Z,-77
2018-01-23T08:47:02.008Z,-77
2018-01-23T08:48:02.156Z,-77
2018-01-23T08:49:01.928Z,-76
2018-01-23T08:50:01.995Z,-75
2018-01-23T08:51:02.106Z,-75
2018-01-23T08:52:01.979Z,-77
2018-01-23T08:53:02.506Z,-77
2018-01-23T08:54:02.221Z,-76
2018-01-23T08:55:01.771Z,-77
2018-01-23T08:56:02.113Z,-77
2018-01-23T08:57:02.055Z,-78
2018-01-23T08:58:01.928Z,-78
2018-01-23T08:59:02.029Z,-78
2018-01-23T09:00:01.955Z,-78
2018-01-23T09:01:02.022Z,-76
2018-01-23T09:02:02.133Z,-78
2018-01-23T09:03:01.952Z,-77
2018-01-23T09:04:02.019Z,-76
2018-01-23T09:05:01.988Z,-78
2018-01-23T09:06:02.082Z,-78
2018-01-23T09:07:01.952Z,-77
2018-01-23T09:08:02.012Z,-77
2018-01-23T09:09:02.014Z,-76
2018-01-23T09:10:01.961Z,-77
2018-01-23T09:11:02.091Z,-76
2018-01-23T09:12:01.917Z,-75
2018-01-23T09:13:02.081Z,-76
2018-01-23T09:14:02.054Z,-76
2018-01-23T09:15:02.114Z,-77
2018-01-23T09:16:01.822Z,-78
2018-01-23T09:17:02.084Z,-77
2018-01-23T09:18:02.053Z,-77
2018-01-23T09:19:02.462Z,-78
2018-01-23T09:20:02.239Z,-78
2018-01-23T09:21:01.860Z,-78
2018-01-23T09:22:01.964Z,-78
2018-01-23T09:23:01.917Z,-77
2018-01-23T09:24:04.343Z,-78
2018-01-23T09:25:02.021Z,-77
2018-01-23T09:26:02.005Z,-77
2018-01-23T09:27:01.993Z,-76
2018-01-23T09:28:01.982Z,-77
2018-01-23T09:29:01.956Z,-77
2018-01-23T09:30:02.002Z,-77
2018-01-23T09:31:02.129Z,-77
2018-01-23T09:32:02.085Z,-77
2018-01-23T09:33:02.642Z,-77
2018-01-23T09:34:01.957Z,-78
2018-01-23T09:35:01.936Z,-78
2018-01-23T09:36:02.062Z,-78
2018-01-23T09:37:02.055Z,-78
2018-01-23T09:38:02.152Z,-77
2018-01-23T09:39:02.121Z,-77
2018-01-23T09:40:02.070Z,-77
2018-01-23T09:41:02.281Z,-78
2018-01-23T09:42:02.078Z,-78
2018-01-23T09:43:02.124Z,-77
2018-01-23T09:44:02.105Z,-78
2018-01-23T09:45:02.202Z,-78
2018-01-23T09:46:02.092Z,-78
2018-01-23T09:47:01.967Z,-78
2018-01-23T09:48:01.971Z,-78
2018-01-23T09:49:02.571Z,-77
2018-01-23T09:50:02.029Z,-77
2018-01-23T09:51:02.124Z,-78
2018-01-23T09:52:02.490Z,-77
2018-01-23T09:53:02.676Z,-78
2018-01-23T09:54:01.860Z,-77
2018-01-23T09:55:01.907Z,-77
2018-01-23T09:56:02.150Z,-78
2018-01-23T09:57:02.523Z,-77
2018-01-23T09:58:02.087Z,-77
2018-01-23T09:59:02.104Z,-76
2018-01-23T10:00:02.174Z,-78
2018-01-23T10:01:01.964Z,-78
2018-01-23T10:02:02.049Z,-78
2018-01-23T10:03:02.282Z,-78
2018-01-23T10:04:02.124Z,-77
2018-01-23T10:05:02.093Z,-77
2018-01-23T10:06:02.178Z,-78
2018-01-23T10:07:02.171Z,-77
2018-01-23T10:08:02.247Z,-76
2018-01-23T10:09:02.408Z,-76
2018-01-23T10:10:02.123Z,-76
2018-01-23T10:11:02.013Z,-78
2018-01-23T10:12:02.248Z,-77
2018-01-23T10:13:02.208Z,-77
2018-01-23T10:14:02.186Z,-78
2018-01-23T10:15:02.199Z,-78
2018-01-23T10:16:02.213Z,-77
2018-01-23T10:17:02.100Z,-77
2018-01-23T10:18:02.233Z,-77
2018-01-23T10:19:02.120Z,-77
2018-01-23T10:20:02.196Z,-78
2018-01-23T10:21:02.548Z,-76
2018-01-23T10:22:02.158Z,-76
2018-01-23T10:23:02.266Z,-78
2018-01-23T10:24:02.186Z,-78
2018-01-23T10:25:02.176Z,-78
2018-01-23T10:26:02.148Z,-78
2018-01-23T10:27:02.236Z,-78
2018-01-23T10:28:02.159Z,-77
2018-01-23T10:29:02.180Z,-78
2018-01-23T10:30:02.125Z,-78
2018-01-23T10:31:02.263Z,-78
2018-01-23T10:32:02.023Z,-77
2018-01-23T10:33:02.108Z,-78
2018-01-23T10:34:02.206Z,-75
2018-01-23T10:35:02.322Z,-78
2018-01-23T10:36:01.982Z,-78
2018-01-23T10:37:02.133Z,-78
2018-01-23T10:38:02.395Z,-78
2018-01-23T10:39:02.044Z,-77
2018-01-23T10:40:02.168Z,-77
2018-01-23T10:41:02.670Z,-78
2018-01-23T10:42:02.135Z,-78
2018-01-23T10:43:02.321Z,-78
2018-01-23T10:44:02.329Z,-77
2018-01-23T10:45:02.330Z,-78
2018-01-23T10:46:02.248Z,-78
2018-01-23T10:47:02.133Z,-78
2018-01-23T10:48:02.312Z,-78
2018-01-23T10:49:02.424Z,-78
2018-01-23T10:50:02.314Z,-77
2018-01-23T10:51:02.176Z,-78
2018-01-23T10:52:02.217Z,-77
2018-01-23T10:53:02.150Z,-78
2018-01-23T10:54:02.311Z,-78
2018-01-23T10:55:02.186Z,-78
2018-01-23T10:56:02.242Z,-78
2018-01-23T10:57:01.965Z,-78
2018-01-23T10:58:02.082Z,-77
2018-01-23T10:59:02.342Z,-78
2018-01-23T11:00:02.286Z,-78
2018-01-23T11:01:02.287Z,-78
2018-01-23T11:02:02.493Z,-77
2018-01-23T11:03:02.208Z,-77
2018-01-23T11:04:02.284Z,-78
2018-01-23T11:05:02.183Z,-79
2018-01-23T11:06:02.422Z,-78
2018-01-23T11:07:02.527Z,-77
2018-01-23T11:08:02.356Z,-76
2018-01-23T11:09:02.452Z,-77
2018-01-23T11:10:02.448Z,-77
2018-01-23T11:11:02.345Z,-78
2018-01-23T11:12:02.280Z,-78
2018-01-23T11:13:02.364Z,-79
2018-01-23T11:14:02.371Z,-79
2018-01-23T11:15:02.394Z,-78
2018-01-23T11:16:02.347Z,-78
2018-01-23T11:17:02.300Z,-78
2018-01-23T11:18:02.617Z,-78
2018-01-23T11:19:02.522Z,-78
2018-01-23T11:20:02.386Z,-78
2018-01-23T11:21:02.396Z,-78
2018-01-23T11:22:02.562Z,-79
2018-01-23T11:23:02.996Z,-78
2018-01-23T11:24:02.635Z,-79
2018-01-23T11:25:02.257Z,-78
2018-01-23T11:26:02.265Z,-78
2018-01-23T11:27:02.147Z,-77
2018-01-23T11:28:02.385Z,-77
2018-01-23T11:29:02.589Z,-75
2018-01-23T11:30:02.351Z,-78
2018-01-23T11:31:02.343Z,-78
2018-01-23T11:32:02.519Z,-78
2018-01-23T11:33:02.395Z,-78
2018-01-23T11:34:02.531Z,-78
2018-01-23T11:35:02.441Z,-78
2018-01-23T11:36:02.313Z,-79
2018-01-23T11:37:02.322Z,-78
2018-01-23T11:38:02.275Z,-78
2018-01-23T11:39:02.510Z,-79
2018-01-23T11:40:02.676Z,-79
2018-01-23T11:41:02.503Z,-78
2018-01-23T11:42:02.421Z,-79
2018-01-23T11:43:02.495Z,-78
2018-01-23T11:44:02.358Z,-79
2018-01-23T11:45:02.445Z,-77
2018-01-23T11:46:02.647Z,-78
2018-01-23T11:47:02.406Z,-77
2018-01-23T11:48:02.467Z,-78
2018-01-23T11:49:02.352Z,-78
2018-01-23T11:50:02.747Z,-79
2018-01-23T11:51:02.457Z,-79
2018-01-23T11:52:02.566Z,-78
2018-01-23T11:53:02.523Z,-79
2018-01-23T11:54:02.877Z,-78
2018-01-23T11:55:02.595Z,-80
2018-01-23T11:56:02.822Z,-79
2018-01-23T11:57:02.473Z,-79
2018-01-23T11:58:02.374Z,-79
2018-01-23T11:59:02.282Z,-79
2018-01-23T12:00:02.485Z,-79
2018-01-23T12:01:02.554Z,-79
2018-01-23T12:02:02.456Z,-79
2018-01-23T12:03:02.551Z,-79
2018-01-23T12:04:02.321Z,-77
2018-01-23T12:05:02.452Z,-77
2018-01-23T12:06:02.672Z,-77
2018-01-23T12:07:02.399Z,-77
2018-01-23T12:08:02.383Z,-78
2018-01-23T12:09:01.532Z,-78
2018-01-23T12:10:01.551Z,-79
2018-01-23T12:11:01.672Z,-78
2018-01-23T12:12:01.460Z,-78
2018-01-23T12:13:01.890Z,-78
2018-01-23T12:14:01.622Z,-77
2018-01-23T12:15:01.560Z,-76
2018-01-23T12:16:01.404Z,-79
2018-01-23T12:17:01.404Z,-79
2018-01-23T12:18:01.583Z,-79
2018-01-23T12:19:01.590Z,-79
2018-01-23T12:20:01.401Z,-79
2018-01-23T12:21:01.359Z,-78
2018-01-23T12:22:01.390Z,-78
2018-01-23T12:23:01.475Z,-76
2018-01-23T12:24:02.555Z,-76
2018-01-23T12:25:01.587Z,-76
2018-01-23T12:26:01.393Z,-77
2018-01-23T12:27:01.434Z,-79
2018-01-23T12:28:01.429Z,-79
2018-01-23T12:29:01.463Z,-79
2018-01-23T12:30:01.471Z,-79
2018-01-23T12:31:01.579Z,-78
2018-01-23T12:32:01.408Z,-79
2018-01-23T12:33:01.558Z,-78
2018-01-23T12:34:01.670Z,-79
2018-01-23T12:35:01.480Z,-79
2018-01-23T12:36:01.626Z,-79
2018-01-23T12:37:01.425Z,-79
2018-01-23T12:38:01.391Z,-79
2018-01-23T12:39:01.892Z,-79
2018-01-23T12:40:01.651Z,-79
2018-01-23T12:41:01.980Z,-78
2018-01-23T12:42:01.932Z,-76
2018-01-23T12:43:01.947Z,-79
2018-01-23T12:44:01.950Z,-78
2018-01-23T12:45:02.071Z,-78
2018-01-23T12:46:01.861Z,-78
2018-01-23T12:47:01.792Z,-79
2018-01-23T12:48:01.787Z,-79
2018-01-23T12:49:01.836Z,-79
2018-01-23T12:50:01.580Z,-79
2018-01-23T12:51:02.081Z,-78
2018-01-23T12:52:02.096Z,-79
2018-01-23T12:53:01.955Z,-79
2018-01-23T12:54:01.896Z,-78
2018-01-23T12:55:01.768Z,-79
2018-01-23T12:56:02.163Z,-79
2018-01-23T12:57:01.780Z,-78
2018-01-23T12:58:02.071Z,-79
2018-01-23T12:59:02.123Z,-79
2018-01-23T13:00:01.744Z,-79
2018-01-23T13:01:01.915Z,-75
2018-01-23T13:02:01.553Z,-75
2018-01-23T13:03:01.912Z,-75
2018-01-23T13:04:02.011Z,-75
2018-01-23T13:05:01.676Z,-76
2018-01-23T13:06:01.920Z,-76
2018-01-23T13:07:01.809Z,-75
2018-01-23T13:08:02.021Z,-75
2018-01-23T13:09:02.188Z,-76
2018-01-23T13:10:02.075Z,-75
2018-01-23T13:11:02.145Z,-77
2018-01-23T13:12:02.473Z,-76
2018-01-23T13:13:01.979Z,-76
2018-01-23T13:14:01.728Z,-77
2018-01-23T13:15:02.061Z,-76
2018-01-23T13:16:01.820Z,-76
2018-01-23T13:17:01.667Z,-76
2018-01-23T13:18:01.897Z,-76
2018-01-23T13:19:01.817Z,-75
2018-01-23T13:20:02.031Z,-75
2018-01-23T13:21:01.824Z,-75
2018-01-23T13:22:01.878Z,-75
2018-01-23T13:23:02.152Z,-75
2018-01-23T13:24:01.999Z,-76
2018-01-23T13:25:01.911Z,-76
2018-01-23T13:26:02.245Z,-76
2018-01-23T13:27:02.034Z,-74
2018-01-23T13:28:01.777Z,-76
2018-01-23T13:29:01.778Z,-78
2018-01-23T13:30:01.995Z,-77
2018-01-23T13:31:01.809Z,-78
2018-01-23T13:32:01.931Z,-79
2018-01-23T13:33:02.012Z,-79
2018-01-23T13:34:02.119Z,-79
2018-01-23T13:35:02.026Z,-79
2018-01-23T13:36:02.047Z,-79
2018-01-23T13:37:01.991Z,-79
2018-01-23T13:38:01.953Z,-79
2018-01-23T13:39:01.852Z,-79
2018-01-23T13:40:01.953Z,-79
2018-01-23T13:41:02.146Z,-79
2018-01-23T13:42:01.960Z,-79
2018-01-23T13:43:01.782Z,-79
2018-01-23T13:44:01.959Z,-75
2018-01-23T13:45:02.084Z,-76
2018-01-23T13:46:01.910Z,-76